Montara, California
Current Conditions -  °F | °C
As of 3:55 AM on Sunday 21 Dec 2014 (Local Time) from KHAF Reporting Station
Haze Haze  
Wind Chill: 59°   Ceiling: 300
Heat Index: 59°   Visibility: 1mi
Dew Point: 59°   Wind: 5mph
Humidity: 100%   Direction: 310°NW
Pressure: 30.28"   Gusts: NA
Location:  37.54°N, 122.52°W
Report Text: KHAF 211155Z AUTO 31004KT 1SM BR OVC003 15/15 A3028 RMK AO2
Loading
Personal Weather Stations






























Interactive Weather Map New forecast layout! Learn more

10-Day Weather Forecast

Advertisements
Track Severe Weather on mobile